Time;durP1;ratioP1;P1;durP2;ratioP2;P2;SDS_P1;SDS_P2;PMS_P1;PMS_P2;Temp;Humidity;BMP_temperature;BMP_pressure;BME280_temperature;BME280_humidity;BME280_pressure;Samples;Min_cycle;Max_cycle;Signal;HPM_P1;HPM_P2
2023/07/27 00:01:37;;;;;;;3.22;2.95;;;;;;;;;;4949302;28;100012;-77
2023/07/27 00:04:03;;;;;;;3.10;2.80;;;;;;;;;;4945961;28;99249;-77
2023/07/27 00:06:30;;;;;;;3.35;3.08;;;;;;;;;;4931387;28;99781;-77
2023/07/27 00:08:57;;;;;;;3.95;3.55;;;;;;;;;;4930713;28;100112;-77
2023/07/27 00:11:23;;;;;;;4.07;3.58;;;;;;;;;;4931675;28;98290;-78
2023/07/27 00:13:50;;;;;;;3.78;3.47;;;;;;;;;;4934750;28;99557;-78
2023/07/27 00:16:17;;;;;;;3.60;3.30;;;;;;;;;;4931716;28;98511;-78
2023/07/27 00:18:44;;;;;;;4.53;3.15;;;;;;;;;;4942733;28;98719;-79
2023/07/27 00:21:10;;;;;;;6.03;3.80;;;;;;;;;;4952229;28;99936;-78
2023/07/27 00:23:40;;;;;;;3.25;2.88;;;;;;;;;;4949006;28;98219;-77
2023/07/27 00:26:06;;;;;;;3.75;3.45;;;;;;;;;;4951304;28;99549;-78
2023/07/27 00:28:33;;;;;;;4.80;3.65;;;;;;;;;;4950629;28;100093;-78
2023/07/27 00:31:00;;;;;;;4.18;3.47;;;;;;;;;;4948762;28;98211;-78
2023/07/27 00:47:37;;;;;;;6.22;3.70;;;;;;;;;;4871765;28;98283;-78
2023/07/27 00:50:04;;;;;;;5.05;3.92;;;;;;;;;;4873028;28;98872;-78
2023/07/27 00:52:31;;;;;;;4.47;4.03;;;;;;;;;;4873382;28;98425;-78
2023/07/27 00:54:59;;;;;;;4.35;3.58;;;;;;;;;;4872248;28;99530;-79
2023/07/27 00:57:26;;;;;;;4.20;3.90;;;;;;;;;;4875614;28;98729;-77
2023/07/27 00:59:53;;;;;;;8.82;4.18;;;;;;;;;;4872067;28;101023;-77
2023/07/27 01:02:19;;;;;;;4.13;3.55;;;;;;;;;;4873340;28;98872;-76
2023/07/27 01:04:46;;;;;;;10.70;4.50;;;;;;;;;;4872560;28;98726;-78
2023/07/27 01:07:14;;;;;;;7.15;3.40;;;;;;;;;;4872095;28;101089;-77
2023/07/27 01:09:41;;;;;;;7.78;4.38;;;;;;;;;;4872266;28;100292;-76
2023/07/27 01:12:19;;;;;;;6.32;3.92;;;;;;;;;;4871330;28;98410;-77
2023/07/27 01:14:52;;;;;;;4.28;3.88;;;;;;;;;;4873528;28;99412;-77
2023/07/27 01:17:18;;;;;;;;;;;;;;;;;;4872030;28;101588;-75
2023/07/27 01:20:05;;;;;;;4.70;3.88;;;;;;;;;;4874047;28;114053;-76
2023/07/27 01:22:32;;;;;;;4.47;3.65;;;;;;;;;;4852034;28;98898;-75
2023/07/27 01:25:17;;;;;;;5.15;4.38;;;;;;;;;;4873607;28;98134;-75
2023/07/27 01:27:46;;;;;;;6.10;3.95;;;;;;;;;;4872036;28;99702;-75
2023/07/27 01:30:19;;;;;;;9.63;4.22;;;;;;;;;;4872817;28;98933;-75
2023/07/27 01:32:45;;;;;;;;;;;;;;;;;;4872785;28;98070;-76
2023/07/27 01:35:14;;;;;;;4.93;4.10;;;;;;;;;;4871704;28;118068;-76
2023/07/27 01:37:42;;;;;;;6.20;4.38;;;;;;;;;;4871683;28;100933;-76
2023/07/27 01:40:09;;;;;;;4.63;4.13;;;;;;;;;;4871147;28;98335;-75
2023/07/27 01:42:36;;;;;;;4.85;4.32;;;;;;;;;;4875759;28;98466;-76
2023/07/27 01:45:06;;;;;;;5.43;4.05;;;;;;;;;;4873445;28;97995;-76
2023/07/27 01:47:33;;;;;;;6.07;4.00;;;;;;;;;;4868609;28;100409;-75
2023/07/27 01:49:59;;;;;;;4.43;4.03;;;;;;;;;;4872719;28;99108;-75
2023/07/27 01:52:26;;;;;;;7.43;4.60;;;;;;;;;;4874182;28;98818;-76
2023/07/27 01:54:56;;;;;;;6.35;3.88;;;;;;;;;;4875821;28;98449;-76
2023/07/27 01:57:26;;;;;;;6.70;3.78;;;;;;;;;;4876332;28;99136;-76
2023/07/27 02:08:40;;;;;;;4.30;3.70;;;;;;;;;;4911610;28;99049;-75
2023/07/27 02:11:10;;;;;;;6.22;4.05;;;;;;;;;;4912866;28;100817;-75
2023/07/27 02:13:45;;;;;;;5.22;4.05;;;;;;;;;;4914335;28;98434;-76
2023/07/27 02:16:32;;;;;;;5.38;3.45;;;;;;;;;;4928342;28;100686;-75
2023/07/27 02:19:00;;;;;;;5.38;3.25;;;;;;;;;;4912804;28;98904;-75
2023/07/27 02:21:28;;;;;;;3.80;3.35;;;;;;;;;;4913216;28;98204;-75
2023/07/27 02:23:55;;;;;;;5.15;3.80;;;;;;;;;;4913725;28;98754;-76
2023/07/27 02:26:22;;;;;;;3.75;3.38;;;;;;;;;;4911508;28;101759;-75
2023/07/27 02:28:48;;;;;;;5.03;3.45;;;;;;;;;;4916443;28;98405;-75
2023/07/27 02:31:16;;;;;;;3.20;3.00;;;;;;;;;;4911756;28;100843;-74
2023/07/27 02:33:43;;;;;;;9.77;3.75;;;;;;;;;;4912663;28;98278;-74
2023/07/27 02:36:09;;;;;;;5.57;3.47;;;;;;;;;;4911488;28;98034;-74
2023/07/27 02:38:36;;;;;;;3.70;3.40;;;;;;;;;;4913270;28;98975;-76
2023/07/27 02:41:03;;;;;;;5.03;3.22;;;;;;;;;;4913921;28;98346;-75
2023/07/27 02:43:29;;;;;;;3.05;2.85;;;;;;;;;;4912841;28;99463;-76
2023/07/27 02:45:58;;;;;;;3.45;3.15;;;;;;;;;;4913272;28;100002;-75
2023/07/27 02:48:26;;;;;;;3.53;3.00;;;;;;;;;;4915463;28;98582;-75
2023/07/27 02:50:53;;;;;;;6.95;3.42;;;;;;;;;;4910494;28;100197;-75
2023/07/27 02:53:20;;;;;;;5.60;3.95;;;;;;;;;;4912187;28;98255;-74
2023/07/27 02:55:57;;;;;;;8.55;2.90;;;;;;;;;;4912261;28;99520;-75
2023/07/27 02:58:24;;;;;;;5.43;3.75;;;;;;;;;;4910944;28;98953;-75
2023/07/27 03:00:54;;;;;;;5.20;3.83;;;;;;;;;;4913783;28;98161;-73
2023/07/27 03:03:21;;;;;;;5.82;3.55;;;;;;;;;;4913367;28;99105;-75
2023/07/27 03:05:59;;;;;;;8.70;4.03;;;;;;;;;;4911199;28;100033;-76
2023/07/27 03:08:26;;;;;;;4.28;3.88;;;;;;;;;;4911845;28;99166;-74
2023/07/27 03:10:53;;;;;;;6.25;3.92;;;;;;;;;;4915563;28;98508;-76
2023/07/27 03:13:21;;;;;;;10.93;4.10;;;;;;;;;;4911746;28;98361;-74
2023/07/27 03:15:47;;;;;;;5.45;3.90;;;;;;;;;;4911158;28;99549;-74
2023/07/27 03:18:13;;;;;;;4.32;3.95;;;;;;;;;;4910944;28;102165;-74
2023/07/27 03:20:40;;;;;;;5.22;4.60;;;;;;;;;;4912024;28;98460;-74
2023/07/27 03:23:07;;;;;;;5.10;4.43;;;;;;;;;;4913116;28;98501;-74
2023/07/27 03:25:35;;;;;;;4.70;4.28;;;;;;;;;;4910659;28;101938;-74
2023/07/27 03:28:02;;;;;;;4.55;4.18;;;;;;;;;;4911876;28;98238;-75
2023/07/27 03:30:28;;;;;;;6.65;4.18;;;;;;;;;;4911054;28;100193;-75
2023/07/27 03:32:55;;;;;;;4.68;3.95;;;;;;;;;;4914275;28;101642;-74
2023/07/27 03:35:21;;;;;;;7.20;3.97;;;;;;;;;;4911418;28;100354;-74
2023/07/27 03:37:49;;;;;;;6.10;3.97;;;;;;;;;;4912960;28;98734;-75
2023/07/27 03:40:16;;;;;;;6.25;4.10;;;;;;;;;;4909668;28;98435;-75
2023/07/27 03:42:42;;;;;;;4.72;3.90;;;;;;;;;;4910845;28;100842;-75
2023/07/27 03:45:09;;;;;;;7.43;4.68;;;;;;;;;;4911533;28;100883;-75
2023/07/27 03:47:35;;;;;;;4.85;4.32;;;;;;;;;;4909204;28;98145;-75
2023/07/27 03:50:02;;;;;;;4.70;3.95;;;;;;;;;;4910178;28;101056;-75
2023/07/27 03:52:29;;;;;;;4.90;4.30;;;;;;;;;;4910554;28;101263;-75
2023/07/27 03:54:55;;;;;;;6.53;4.40;;;;;;;;;;4913798;28;98162;-75
2023/07/27 03:57:22;;;;;;;5.40;4.88;;;;;;;;;;4911115;28;101638;-74
2023/07/27 03:59:48;;;;;;;5.97;5.32;;;;;;;;;;4910714;28;98338;-74
2023/07/27 04:02:15;;;;;;;6.05;5.55;;;;;;;;;;4911147;28;101103;-74
2023/07/27 04:04:41;;;;;;;5.55;5.05;;;;;;;;;;4911803;28;99132;-74
2023/07/27 04:07:08;;;;;;;5.95;5.13;;;;;;;;;;4895669;28;99021;-74
2023/07/27 04:09:34;;;;;;;7.25;5.30;;;;;;;;;;4892704;28;98371;-74
2023/07/27 04:12:01;;;;;;;8.93;6.35;;;;;;;;;;4893043;28;99959;-74
2023/07/27 04:14:27;;;;;;;11.13;7.68;;;;;;;;;;4891839;28;98233;-75
2023/07/27 04:16:54;;;;;;;7.63;6.82;;;;;;;;;;4906266;28;98345;-75
2023/07/27 04:19:20;;;;;;;17.95;8.60;;;;;;;;;;4911922;28;98261;-75
2023/07/27 04:21:47;;;;;;;13.65;9.50;;;;;;;;;;4911674;28;98583;-75
2023/07/27 04:24:13;;;;;;;16.25;10.25;;;;;;;;;;4910153;28;100170;-75
2023/07/27 04:26:40;;;;;;;18.90;10.45;;;;;;;;;;4911016;28;98223;-75
2023/07/27 04:29:06;;;;;;;17.38;11.70;;;;;;;;;;4913557;28;99354;-75
2023/07/27 04:31:32;;;;;;;24.55;12.63;;;;;;;;;;4915136;28;97910;-75
2023/07/27 04:33:59;;;;;;;23.55;13.38;;;;;;;;;;4912551;28;98104;-75
2023/07/27 04:36:25;;;;;;;22.05;12.75;;;;;;;;;;4910808;28;99451;-76
2023/07/27 04:38:52;;;;;;;16.52;12.30;;;;;;;;;;4912916;28;101456;-75
2023/07/27 04:41:18;;;;;;;19.40;13.00;;;;;;;;;;4909983;28;99467;-75
2023/07/27 04:43:45;;;;;;;21.60;13.55;;;;;;;;;;4909568;28;99999;-76
2023/07/27 04:46:11;;;;;;;22.33;11.80;;;;;;;;;;4910792;28;98412;-76
2023/07/27 04:48:38;;;;;;;19.02;12.30;;;;;;;;;;4911665;28;98634;-74
2023/07/27 04:51:04;;;;;;;20.73;13.07;;;;;;;;;;4907886;28;100298;-76
2023/07/27 04:53:31;;;;;;;19.15;12.60;;;;;;;;;;4909229;28;99438;-74
2023/07/27 04:55:57;;;;;;;17.88;11.95;;;;;;;;;;4910521;28;99622;-74
2023/07/27 04:58:24;;;;;;;15.13;11.10;;;;;;;;;;4912246;28;101311;-74
2023/07/27 05:00:54;;;;;;;21.13;12.52;;;;;;;;;;4911215;28;98412;-74
2023/07/27 05:03:20;;;;;;;17.38;11.73;;;;;;;;;;4910432;28;99980;-73
2023/07/27 05:05:47;;;;;;;23.83;13.73;;;;;;;;;;4911713;28;98303;-74
2023/07/27 05:08:13;;;;;;;16.67;10.98;;;;;;;;;;4910914;28;99480;-75
2023/07/27 05:10:40;;;;;;;17.20;10.95;;;;;;;;;;4910299;28;99094;-74
2023/07/27 05:13:07;;;;;;;20.13;11.43;;;;;;;;;;4911551;28;98223;-74
2023/07/27 05:15:34;;;;;;;18.13;10.23;;;;;;;;;;4911218;28;98686;-76
2023/07/27 05:18:00;;;;;;;12.38;9.93;;;;;;;;;;4909427;28;100094;-74
2023/07/27 05:20:27;;;;;;;13.95;10.40;;;;;;;;;;4914403;28;98316;-74
2023/07/27 05:22:53;;;;;;;12.45;9.73;;;;;;;;;;4910978;28;99045;-74
2023/07/27 05:25:20;;;;;;;11.98;9.65;;;;;;;;;;4909699;28;98203;-74
2023/07/27 05:27:46;;;;;;;13.07;9.13;;;;;;;;;;4910125;28;99184;-74
2023/07/27 05:30:13;;;;;;;9.60;7.88;;;;;;;;;;4910677;28;99805;-74
2023/07/27 05:32:39;;;;;;;12.30;8.60;;;;;;;;;;4910677;28;98223;-74
2023/07/27 05:35:06;;;;;;;8.50;7.43;;;;;;;;;;4911541;28;99695;-74
2023/07/27 05:37:32;;;;;;;8.10;7.18;;;;;;;;;;4910764;28;99861;-74
2023/07/27 05:39:58;;;;;;;8.82;7.50;;;;;;;;;;4910430;28;98200;-74
2023/07/27 05:42:25;;;;;;;14.00;7.70;;;;;;;;;;4913033;28;99402;-74
2023/07/27 05:44:53;;;;;;;12.35;8.00;;;;;;;;;;4910390;28;98267;-74
2023/07/27 05:47:19;;;;;;;9.75;6.55;;;;;;;;;;4909487;28;98687;-74
2023/07/27 05:49:46;;;;;;;9.60;7.00;;;;;;;;;;4907651;28;98916;-74
2023/07/27 05:52:12;;;;;;;9.70;6.70;;;;;;;;;;4910125;28;98221;-74
2023/07/27 05:54:39;;;;;;;8.43;6.63;;;;;;;;;;4910156;28;99406;-74
2023/07/27 05:57:05;;;;;;;7.47;6.43;;;;;;;;;;4910949;28;98929;-74
2023/07/27 05:59:31;;;;;;;7.78;5.63;;;;;;;;;;4909765;28;98200;-74
2023/07/27 06:01:58;;;;;;;7.55;6.53;;;;;;;;;;4910630;28;99386;-74
2023/07/27 06:04:27;;;;;;;6.43;5.82;;;;;;;;;;4913502;28;99154;-74
2023/07/27 06:06:54;;;;;;;8.68;5.90;;;;;;;;;;4907432;28;98556;-74
2023/07/27 06:09:21;;;;;;;8.90;5.50;;;;;;;;;;4909588;28;99889;-74
2023/07/27 06:11:47;;;;;;;6.60;5.90;;;;;;;;;;4910611;28;98219;-74
2023/07/27 06:14:14;;;;;;;7.22;5.53;;;;;;;;;;4907490;28;99565;-75
2023/07/27 06:16:40;;;;;;;5.40;4.90;;;;;;;;;;4910079;28;98986;-76
2023/07/27 06:19:07;;;;;;;5.45;4.80;;;;;;;;;;4909773;28;98029;-74
2023/07/27 06:21:33;;;;;;;5.10;4.68;;;;;;;;;;4909139;28;98495;-74
2023/07/27 06:23:59;;;;;;;5.30;4.80;;;;;;;;;;4909493;28;99997;-74
2023/07/27 06:26:26;;;;;;;4.45;4.05;;;;;;;;;;4910992;28;98671;-74
2023/07/27 06:28:52;;;;;;;5.85;4.10;;;;;;;;;;4908665;28;99038;-74
2023/07/27 06:31:19;;;;;;;4.78;4.38;;;;;;;;;;4909597;28;98195;-74
2023/07/27 06:33:45;;;;;;;5.40;4.07;;;;;;;;;;4909659;28;99440;-74
2023/07/27 06:36:17;;;;;;;4.47;4.15;;;;;;;;;;4909536;28;99009;-74
2023/07/27 06:38:43;;;;;;;4.65;4.25;;;;;;;;;;4912206;28;98236;-73
2023/07/27 06:41:10;;;;;;;5.05;4.07;;;;;;;;;;4911259;28;99392;-75
2023/07/27 06:43:37;;;;;;;3.83;3.58;;;;;;;;;;4911438;28;98982;-74
2023/07/27 06:46:03;;;;;;;4.13;3.83;;;;;;;;;;4913318;28;98333;-74
2023/07/27 06:48:29;;;;;;;4.25;3.95;;;;;;;;;;4916904;28;99553;-74
2023/07/27 06:50:57;;;;;;;4.20;3.80;;;;;;;;;;4910134;28;99062;-74
2023/07/27 06:53:23;;;;;;;4.10;3.78;;;;;;;;;;4911551;28;99441;-73
2023/07/27 06:55:49;;;;;;;4.10;3.78;;;;;;;;;;4911608;28;99273;-74
2023/07/27 06:58:16;;;;;;;4.10;3.80;;;;;;;;;;4912146;28;98199;-74
2023/07/27 07:00:43;;;;;;;3.88;3.47;;;;;;;;;;4909021;28;99898;-74
2023/07/27 07:03:09;;;;;;;3.17;2.95;;;;;;;;;;4906665;28;100290;-73
2023/07/27 07:05:36;;;;;;;3.58;3.08;;;;;;;;;;4912143;28;98677;-73
2023/07/27 07:08:02;;;;;;;5.43;3.10;;;;;;;;;;4915897;28;98757;-74
2023/07/27 07:10:29;;;;;;;3.33;3.13;;;;;;;;;;4911254;28;98350;-73
2023/07/27 07:12:56;;;;;;;3.15;2.88;;;;;;;;;;4911819;28;99450;-73
2023/07/27 07:15:23;;;;;;;3.28;3.08;;;;;;;;;;4910808;28;99186;-75
2023/07/27 07:17:49;;;;;;;9.95;2.47;;;;;;;;;;4910497;28;98200;-73
2023/07/27 07:20:16;;;;;;;2.90;2.70;;;;;;;;;;4911205;28;98637;-74
2023/07/27 07:22:43;;;;;;;3.17;2.97;;;;;;;;;;4893594;28;99243;-73
2023/07/27 07:25:09;;;;;;;2.88;2.70;;;;;;;;;;4900781;28;98239;-73
2023/07/27 07:27:36;;;;;;;3.30;3.08;;;;;;;;;;4910425;28;98854;-72
2023/07/27 07:30:05;;;;;;;3.10;2.90;;;;;;;;;;4899299;28;99987;-73
2023/07/27 07:32:33;;;;;;;7.75;2.70;;;;;;;;;;4900704;28;98668;-75
2023/07/27 07:35:01;;;;;;;2.65;2.55;;;;;;;;;;4912626;28;99992;-74
2023/07/27 07:37:27;;;;;;;2.17;2.08;;;;;;;;;;4912982;28;98227;-74
2023/07/27 07:39:54;;;;;;;2.60;2.47;;;;;;;;;;4912110;28;98737;-74
2023/07/27 07:42:20;;;;;;;2.13;2.03;;;;;;;;;;4910506;28;99946;-75
2023/07/27 07:44:46;;;;;;;2.28;2.17;;;;;;;;;;4911357;28;98200;-74
2023/07/27 07:47:13;;;;;;;1.90;1.80;;;;;;;;;;4909772;28;99510;-74
2023/07/27 07:49:39;;;;;;;2.13;1.92;;;;;;;;;;4907607;28;100265;-74
2023/07/27 07:52:06;;;;;;;2.10;2.00;;;;;;;;;;4913964;28;98836;-74
2023/07/27 07:54:32;;;;;;;2.05;1.95;;;;;;;;;;4910878;28;101078;-73
2023/07/27 07:56:59;;;;;;;1.88;1.77;;;;;;;;;;4911989;28;98239;-73
2023/07/27 07:59:25;;;;;;;1.98;1.88;;;;;;;;;;4898191;28;98692;-75
2023/07/27 08:01:52;;;;;;;1.98;1.88;;;;;;;;;;4912270;28;98903;-73
2023/07/27 08:04:18;;;;;;;1.77;1.67;;;;;;;;;;4905948;28;98238;-73
2023/07/27 08:06:45;;;;;;;1.77;1.73;;;;;;;;;;4910219;28;98591;-73
2023/07/27 08:09:12;;;;;;;1.38;1.38;;;;;;;;;;4909788;28;99909;-73
2023/07/27 08:11:41;;;;;;;1.65;1.48;;;;;;;;;;4909506;28;98260;-72
2023/07/27 08:14:09;;;;;;;1.27;1.27;;;;;;;;;;4913159;28;98781;-73
2023/07/27 08:16:35;;;;;;;1.10;1.10;;;;;;;;;;4902583;28;98258;-74
2023/07/27 08:19:02;;;;;;;1.38;1.27;;;;;;;;;;4905831;28;98696;-74
2023/07/27 08:21:29;;;;;;;1.60;1.50;;;;;;;;;;4909646;28;100220;-74
2023/07/27 08:23:57;;;;;;;1.40;1.40;;;;;;;;;;4911923;28;98259;-74
2023/07/27 08:26:24;;;;;;;1.67;1.50;;;;;;;;;;4910586;28;98720;-75
2023/07/27 08:28:50;;;;;;;1.05;1.05;;;;;;;;;;4906653;28;100293;-74
2023/07/27 08:31:17;;;;;;;2.90;1.30;;;;;;;;;;4910580;28;98323;-73
2023/07/27 08:33:43;;;;;;;1.10;1.10;;;;;;;;;;4910271;28;98845;-72
2023/07/27 08:36:10;;;;;;;0.90;0.90;;;;;;;;;;4909161;28;98962;-73
2023/07/27 08:38:36;;;;;;;1.23;1.17;;;;;;;;;;4910742;28;98583;-74
2023/07/27 08:41:03;;;;;;;1.00;1.00;;;;;;;;;;4907842;28;100350;-72
2023/07/27 08:43:29;;;;;;;0.90;0.90;;;;;;;;;;4909523;28;98223;-74
2023/07/27 08:45:56;;;;;;;0.80;0.73;;;;;;;;;;4911437;28;99310;-74
2023/07/27 08:48:23;;;;;;;7.88;0.80;;;;;;;;;;4909790;28;100186;-74
2023/07/27 08:50:51;;;;;;;0.70;0.70;;;;;;;;;;4911752;28;98244;-75
2023/07/27 08:53:18;;;;;;;1.20;0.60;;;;;;;;;;4908572;28;98626;-75
2023/07/27 08:55:44;;;;;;;2.08;0.70;;;;;;;;;;4898294;28;101188;-75
2023/07/27 08:58:11;;;;;;;0.70;0.70;;;;;;;;;;4913771;28;98916;-75
2023/07/27 09:00:40;;;;;;;0.80;0.80;;;;;;;;;;4907736;28;98875;-74
2023/07/27 09:03:07;;;;;;;0.80;0.80;;;;;;;;;;4891553;28;98229;-74
2023/07/27 09:05:38;;;;;;;0.80;0.80;;;;;;;;;;4900482;28;99645;-74
2023/07/27 09:08:05;;;;;;;0.85;0.80;;;;;;;;;;4910800;28;99898;-74
2023/07/27 09:10:32;;;;;;;0.70;0.70;;;;;;;;;;4910261;28;98274;-74
2023/07/27 09:13:00;;;;;;;4.63;0.93;;;;;;;;;;4911217;28;99591;-74
2023/07/27 09:15:26;;;;;;;1.15;1.15;;;;;;;;;;4910790;28;99946;-74
2023/07/27 09:17:53;;;;;;;1.20;1.20;;;;;;;;;;4899753;28;98282;-74
2023/07/27 09:20:20;;;;;;;1.85;1.20;;;;;;;;;;4908471;28;99941;-75
2023/07/27 09:22:48;;;;;;;0.95;0.95;;;;;;;;;;4910297;28;98252;-75
2023/07/27 09:25:15;;;;;;;1.20;1.20;;;;;;;;;;4906457;28;98519;-74
2023/07/27 09:27:43;;;;;;;1.27;1.10;;;;;;;;;;4911204;28;98882;-75
2023/07/27 09:30:12;;;;;;;2.08;0.90;;;;;;;;;;4910626;28;98248;-74
2023/07/27 09:32:39;;;;;;;1.13;0.98;;;;;;;;;;4910605;28;98556;-74
2023/07/27 09:35:06;;;;;;;1.95;1.70;;;;;;;;;;4910730;28;99119;-75
2023/07/27 09:37:33;;;;;;;2.60;1.08;;;;;;;;;;4910350;28;98307;-75
2023/07/27 09:40:09;;;;;;;1.33;0.65;;;;;;;;;;4905823;28;98777;-74
2023/07/27 09:42:37;;;;;;;1.52;0.65;;;;;;;;;;4903507;28;98347;-73
2023/07/27 09:45:03;;;;;;;0.60;0.60;;;;;;;;;;4907070;28;99380;-75
2023/07/27 09:47:31;;;;;;;0.80;0.80;;;;;;;;;;4909945;28;99281;-73
2023/07/27 09:49:58;;;;;;;0.73;0.73;;;;;;;;;;4908094;28;100309;-73
2023/07/27 09:52:25;;;;;;;0.30;0.30;;;;;;;;;;4909279;28;99385;-75
2023/07/27 09:54:53;;;;;;;0.55;0.55;;;;;;;;;;4908829;28;99485;-74
2023/07/27 09:57:20;;;;;;;0.50;0.50;;;;;;;;;;4902953;28;98322;-78
2023/07/27 09:59:48;;;;;;;0.85;0.43;;;;;;;;;;4898920;28;98762;-76
2023/07/27 10:02:14;;;;;;;0.50;0.50;;;;;;;;;;4913231;28;99134;-75
2023/07/27 10:04:52;;;;;;;0.47;0.47;;;;;;;;;;4911233;28;98698;-76
2023/07/27 10:07:19;;;;;;;0.50;0.50;;;;;;;;;;4907277;28;98857;-73
2023/07/27 10:09:46;;;;;;;0.60;0.60;;;;;;;;;;4910093;28;98295;-76
2023/07/27 10:12:28;;;;;;;0.30;0.30;;;;;;;;;;4906741;28;99405;-74
2023/07/27 10:15:13;;;;;;;0.70;0.70;;;;;;;;;;4913194;28;99584;-75
2023/07/27 10:17:40;;;;;;;0.45;0.45;;;;;;;;;;4912434;28;98155;-75
2023/07/27 10:20:33;;;;;;;1.05;0.32;;;;;;;;;;4913455;28;98785;-74
2023/07/27 10:23:16;;;;;;;0.30;0.30;;;;;;;;;;4910946;28;100228;-73
2023/07/27 10:25:55;;;;;;;0.75;0.50;;;;;;;;;;4916957;28;98505;-74
2023/07/27 10:28:31;;;;;;;0.98;0.52;;;;;;;;;;4905102;28;100078;-75
2023/07/27 10:31:13;;;;;;;0.60;0.60;;;;;;;;;;4913391;28;98173;-74
2023/07/27 10:33:48;;;;;;;0.63;0.63;;;;;;;;;;4913201;28;99921;-74
2023/07/27 10:36:15;;;;;;;0.60;0.60;;;;;;;;;;4913239;28;100464;-74
2023/07/27 10:38:52;;;;;;;0.52;0.52;;;;;;;;;;4912882;28;98304;-74
2023/07/27 10:41:20;;;;;;;0.52;0.50;;;;;;;;;;4910593;28;99072;-73
2023/07/27 10:44:05;;;;;;;0.63;0.63;;;;;;;;;;4903550;28;100095;-74
2023/07/27 10:46:31;;;;;;;0.70;0.70;;;;;;;;;;4912586;28;98260;-75
2023/07/27 10:49:08;;;;;;;0.60;0.60;;;;;;;;;;4913121;28;100683;-75
2023/07/27 10:51:34;;;;;;;0.50;0.50;;;;;;;;;;4913143;28;98140;-76
2023/07/27 10:54:01;;;;;;;2.78;0.77;;;;;;;;;;4913474;28;98579;-75
2023/07/27 10:56:28;;;;;;;0.80;0.80;;;;;;;;;;4911074;28;99888;-75
2023/07/27 10:58:58;;;;;;;0.90;0.90;;;;;;;;;;4912927;28;98283;-75
2023/07/27 11:01:25;;;;;;;1.23;0.93;;;;;;;;;;4912499;28;99726;-76
2023/07/27 11:03:54;;;;;;;0.70;0.70;;;;;;;;;;4910938;28;100024;-75
2023/07/27 11:06:23;;;;;;;0.73;0.73;;;;;;;;;;4911581;28;98260;-76
2023/07/27 11:08:49;;;;;;;0.90;0.75;;;;;;;;;;4912599;28;99602;-74
2023/07/27 11:11:20;;;;;;;0.82;0.60;;;;;;;;;;4913727;28;98705;-75
2023/07/27 11:13:47;;;;;;;0.73;0.73;;;;;;;;;;4913002;28;98555;-75
2023/07/27 11:16:13;;;;;;;1.00;1.00;;;;;;;;;;4908559;28;99141;-75
2023/07/27 11:18:43;;;;;;;0.70;0.70;;;;;;;;;;4912900;28;98204;-75
2023/07/27 11:21:11;;;;;;;0.50;0.50;;;;;;;;;;4913288;28;99413;-75
2023/07/27 11:23:41;;;;;;;0.80;0.50;;;;;;;;;;4911940;28;98939;-76
2023/07/27 11:26:08;;;;;;;0.40;0.40;;;;;;;;;;4908716;28;98443;-76
2023/07/27 11:28:34;;;;;;;0.47;0.47;;;;;;;;;;4908561;28;100291;-74
2023/07/27 11:31:01;;;;;;;1.27;0.55;;;;;;;;;;4913947;28;99436;-74
2023/07/27 11:33:34;;;;;;;0.47;0.47;;;;;;;;;;4907692;28;99941;-75
2023/07/27 11:36:00;;;;;;;0.70;0.70;;;;;;;;;;4912127;28;99934;-75
2023/07/27 11:38:27;;;;;;;0.50;0.50;;;;;;;;;;4911154;28;98170;-74
2023/07/27 11:40:57;;;;;;;0.95;0.68;;;;;;;;;;4909583;28;100002;-76
2023/07/27 11:43:44;;;;;;;0.82;0.82;;;;;;;;;;4910323;28;99906;-74
2023/07/27 11:46:10;;;;;;;1.10;1.02;;;;;;;;;;4911231;28;98445;-74
2023/07/27 11:48:37;;;;;;;1.73;0.90;;;;;;;;;;4909391;28;99949;-75
2023/07/27 11:51:04;;;;;;;0.90;0.90;;;;;;;;;;4908919;28;99880;-74
2023/07/27 11:53:30;;;;;;;0.90;0.90;;;;;;;;;;4906993;28;98309;-75
2023/07/27 11:56:08;;;;;;;1.95;1.00;;;;;;;;;;4910513;28;98826;-75
2023/07/27 11:58:36;;;;;;;3.72;1.10;;;;;;;;;;4910369;28;99408;-74
2023/07/27 12:01:03;;;;;;;1.58;0.90;;;;;;;;;;4912155;28;98297;-74
2023/07/27 12:03:31;;;;;;;1.27;0.88;;;;;;;;;;4908442;28;99636;-75
2023/07/27 12:05:59;;;;;;;1.88;1.00;;;;;;;;;;4910381;28;98216;-76
2023/07/27 12:08:26;;;;;;;1.35;1.20;;;;;;;;;;4911315;28;99775;-75
2023/07/27 12:11:01;;;;;;;1.58;1.15;;;;;;;;;;4909881;28;100136;-76
2023/07/27 12:13:31;;;;;;;0.73;0.73;;;;;;;;;;4903367;28;99845;-75
2023/07/27 12:16:03;;;;;;;0.73;0.73;;;;;;;;;;4910264;28;98647;-73
2023/07/27 12:18:32;;;;;;;0.90;0.90;;;;;;;;;;4908690;28;98286;-75
2023/07/27 12:21:15;;;;;;;0.63;0.63;;;;;;;;;;4910313;28;99874;-77
2023/07/27 12:23:45;;;;;;;1.85;0.70;;;;;;;;;;4911551;28;99988;-75
2023/07/27 12:26:11;;;;;;;0.60;0.57;;;;;;;;;;4911280;28;98240;-76
2023/07/27 12:28:41;;;;;;;2.58;0.70;;;;;;;;;;4912187;28;98385;-74
2023/07/27 12:31:09;;;;;;;0.80;0.80;;;;;;;;;;4905544;28;100105;-74
2023/07/27 12:33:38;;;;;;;2.42;0.75;;;;;;;;;;4901910;28;99705;-73
2023/07/27 12:36:05;;;;;;;0.70;0.70;;;;;;;;;;4901152;28;100350;-75
2023/07/27 12:38:31;;;;;;;0.70;0.70;;;;;;;;;;4905829;28;99734;-74
2023/07/27 12:41:01;;;;;;;1.27;0.70;;;;;;;;;;4903881;28;98481;-74
2023/07/27 12:43:27;;;;;;;0.55;0.55;;;;;;;;;;4902984;28;99874;-74
2023/07/27 12:45:54;;;;;;;0.70;0.70;;;;;;;;;;4903997;28;99474;-75
2023/07/27 12:48:20;;;;;;;0.50;0.40;;;;;;;;;;4906302;28;98605;-74
2023/07/27 12:50:47;;;;;;;2.22;0.55;;;;;;;;;;4909699;28;99114;-74
2023/07/27 12:53:13;;;;;;;1.15;0.50;;;;;;;;;;4902772;28;98321;-74
2023/07/27 12:55:40;;;;;;;0.60;0.60;;;;;;;;;;4904265;28;99425;-74
2023/07/27 12:58:06;;;;;;;1.42;0.70;;;;;;;;;;4910749;28;99891;-74
2023/07/27 13:00:33;;;;;;;0.50;0.50;;;;;;;;;;4903958;28;98272;-74
2023/07/27 13:02:59;;;;;;;0.80;0.43;;;;;;;;;;4910111;28;100182;-76
2023/07/27 13:05:26;;;;;;;0.40;0.40;;;;;;;;;;4910914;28;98915;-74
2023/07/27 13:07:52;;;;;;;0.65;0.60;;;;;;;;;;4900138;28;99775;-74
2023/07/27 13:10:19;;;;;;;2.15;0.50;;;;;;;;;;4902935;28;100039;-74
2023/07/27 13:12:45;;;;;;;0.57;0.57;;;;;;;;;;4900006;28;98458;-74
2023/07/27 13:15:12;;;;;;;0.40;0.40;;;;;;;;;;4900966;28;99868;-74
2023/07/27 13:17:40;;;;;;;0.63;0.63;;;;;;;;;;4897930;28;99930;-74
2023/07/27 13:20:08;;;;;;;1.65;0.50;;;;;;;;;;4902428;28;100403;-75
2023/07/27 13:22:34;;;;;;;0.35;0.35;;;;;;;;;;4901031;28;99883;-75
2023/07/27 13:25:02;;;;;;;1.48;0.75;;;;;;;;;;4902311;28;99068;-74
2023/07/27 13:27:30;;;;;;;0.50;0.50;;;;;;;;;;4904432;28;100863;-74
2023/07/27 13:29:56;;;;;;;3.42;0.60;;;;;;;;;;4906776;28;99033;-74
2023/07/27 13:32:23;;;;;;;0.65;0.52;;;;;;;;;;4901837;28;99457;-76
2023/07/27 13:34:49;;;;;;;0.60;0.60;;;;;;;;;;4899580;28;99971;-74
2023/07/27 13:37:16;;;;;;;0.50;0.50;;;;;;;;;;4903634;28;99603;-74
2023/07/27 13:39:42;;;;;;;0.93;0.60;;;;;;;;;;4904428;28;99067;-75
2023/07/27 13:42:09;;;;;;;0.88;0.70;;;;;;;;;;4907238;28;99648;-75
2023/07/27 13:44:35;;;;;;;4.07;0.75;;;;;;;;;;4901009;28;98798;-74
2023/07/27 13:47:02;;;;;;;1.15;1.02;;;;;;;;;;4902904;28;98607;-76
2023/07/27 13:49:28;;;;;;;1.38;1.00;;;;;;;;;;4898975;28;99074;-76
2023/07/27 13:51:55;;;;;;;0.80;0.80;;;;;;;;;;4899174;28;98593;-74
2023/07/27 13:54:21;;;;;;;1.40;1.23;;;;;;;;;;4900406;28;99032;-74
2023/07/27 13:56:48;;;;;;;1.65;1.48;;;;;;;;;;4901374;28;99115;-76
2023/07/27 13:59:16;;;;;;;1.42;1.33;;;;;;;;;;4903271;28;98440;-75
2023/07/27 14:01:44;;;;;;;1.40;1.33;;;;;;;;;;4905049;28;99565;-77
2023/07/27 14:04:10;;;;;;;1.48;1.38;;;;;;;;;;4904623;28;99100;-75
2023/07/27 14:06:37;;;;;;;1.38;1.27;;;;;;;;;;4904029;28;98703;-74
2023/07/27 14:09:03;;;;;;;2.15;1.95;;;;;;;;;;4902934;28;99897;-77
2023/07/27 14:11:31;;;;;;;1.42;1.33;;;;;;;;;;4903624;28;99997;-74
2023/07/27 14:13:58;;;;;;;5.55;2.28;;;;;;;;;;4902295;28;99621;-74
2023/07/27 14:16:25;;;;;;;6.10;1.80;;;;;;;;;;4901139;28;99997;-74
2023/07/27 14:18:51;;;;;;;2.65;1.80;;;;;;;;;;4900948;28;98850;-75
2023/07/27 14:21:18;;;;;;;2.00;1.80;;;;;;;;;;4900616;28;98516;-75
2023/07/27 14:23:47;;;;;;;3.20;2.08;;;;;;;;;;4901734;28;99333;-76
2023/07/27 14:26:15;;;;;;;2.72;1.48;;;;;;;;;;4904766;28;100506;-77
2023/07/27 14:28:46;;;;;;;2.03;1.80;;;;;;;;;;4900918;28;100471;-77
2023/07/27 14:31:12;;;;;;;1.95;1.83;;;;;;;;;;4899604;28;98802;-75
2023/07/27 14:33:40;;;;;;;2.83;1.75;;;;;;;;;;4901343;28;99800;-76
2023/07/27 14:36:06;;;;;;;2.08;1.70;;;;;;;;;;4899471;28;99532;-75
2023/07/27 14:38:33;;;;;;;3.45;1.77;;;;;;;;;;4902686;28;98450;-76
2023/07/27 14:40:59;;;;;;;1.95;1.80;;;;;;;;;;4901993;28;100516;-76
2023/07/27 14:43:26;;;;;;;2.85;1.85;;;;;;;;;;4902221;28;100092;-75
2023/07/27 14:45:52;;;;;;;5.30;1.83;;;;;;;;;;4898819;28;100136;-77
2023/07/27 14:48:20;;;;;;;3.53;1.83;;;;;;;;;;4901434;28;100142;-74
2023/07/27 14:50:47;;;;;;;5.03;2.38;;;;;;;;;;4898406;28;98433;-77
2023/07/27 14:53:14;;;;;;;4.13;2.00;;;;;;;;;;4902320;28;100039;-75
2023/07/27 14:55:42;;;;;;;3.80;2.55;;;;;;;;;;4895278;28;100013;-74
2023/07/27 14:58:09;;;;;;;5.32;1.88;;;;;;;;;;4899506;28;99925;-75
2023/07/27 15:00:43;;;;;;;2.83;1.55;;;;;;;;;;4903178;28;98915;-75
2023/07/27 15:03:17;;;;;;;3.28;1.80;;;;;;;;;;4909021;28;99371;-75
2023/07/27 15:05:48;;;;;;;2.50;2.30;;;;;;;;;;4901510;28;99111;-76